Time;durP1;ratioP1;P1;durP2;ratioP2;P2;SDS_P1;SDS_P2;PMS_P1;PMS_P2;Temp;Humidity;BMP_temperature;BMP_pressure;BME280_temperature;BME280_humidity;BME280_pressure;Samples;Min_cycle;Max_cycle;Signal;HPM_P1;HPM_P2
2022/06/03 00:00:53;;;;;;;5.20;3.80;;;10.30;99.90;;;;;;5034860;28;20227;-66
2022/06/03 00:03:46;;;;;;;4.57;4.03;;;10.30;99.90;;;;;;5033945;28;20238;-66
2022/06/03 00:06:28;;;;;;;5.27;4.77;;;10.30;99.90;;;;;;5031785;28;20772;-66
2022/06/03 00:09:36;;;;;;;5.57;4.27;;;10.20;99.90;;;;;;5029342;28;20234;-66
2022/06/03 00:12:31;;;;;;;4.50;4.10;;;10.20;99.90;;;;;;5035342;28;20230;-66
2022/06/03 00:15:15;;;;;;;5.13;4.53;;;10.20;99.90;;;;;;5015448;28;20264;-66
2022/06/03 00:18:12;;;;;;;4.47;4.07;;;10.10;99.90;;;;;;5035423;28;20577;-66
2022/06/03 00:20:55;;;;;;;5.03;4.30;;;10.10;99.90;;;;;;5004793;28;20220;-66
2022/06/03 00:23:54;;;;;;;4.67;4.27;;;10.10;99.90;;;;;;5031138;28;20318;-66
2022/06/03 00:26:59;;;;;;;5.50;4.23;;;10.00;99.90;;;;;;5035342;28;20287;-66
2022/06/03 00:29:41;;;;;;;7.00;4.10;;;10.00;99.90;;;;;;5031066;28;20230;-66
2022/06/03 00:32:45;;;;;;;6.53;3.90;;;10.00;99.90;;;;;;5035286;28;20261;-66
2022/06/03 00:35:26;;;;;;;5.47;4.47;;;10.00;99.90;;;;;;5033510;28;20233;-66
2022/06/03 00:37:58;;;;;;;6.40;5.43;;;9.90;99.90;;;;;;5028606;28;20311;-66
2022/06/03 00:40:41;;;;;;;6.17;4.67;;;9.90;99.90;;;;;;5022416;28;20229;-66
2022/06/03 00:43:33;;;;;;;7.03;4.80;;;9.90;99.90;;;;;;5034090;28;20239;-66
2022/06/03 00:46:20;;;;;;;6.73;4.70;;;9.90;99.90;;;;;;5029682;28;20241;-66
2022/06/03 00:49:22;;;;;;;6.90;4.87;;;9.80;99.90;;;;;;5034827;28;20275;-66
2022/06/03 00:52:26;;;;;;;4.93;4.43;;;9.80;99.90;;;;;;5028774;28;20248;-66
2022/06/03 00:55:23;;;;;;;6.43;4.37;;;9.80;99.90;;;;;;5027073;28;20229;-66
2022/06/03 00:58:16;;;;;;;5.23;4.73;;;9.70;99.90;;;;;;5015033;28;20706;-66
2022/06/03 01:01:02;;;;;;;4.93;4.47;;;9.70;99.90;;;;;;5024726;28;20232;-66
2022/06/03 01:03:42;;;;;;;4.97;4.50;;;9.70;99.90;;;;;;5043631;28;20243;-66
2022/06/03 01:06:22;;;;;;;4.93;4.33;;;9.70;99.90;;;;;;5054517;28;20699;-66
2022/06/03 01:09:26;;;;;;;5.07;4.47;;;9.60;99.90;;;;;;5053535;28;20808;-66
2022/06/03 01:12:14;;;;;;;7.87;4.40;;;9.60;99.90;;;;;;5033789;28;20231;-66
2022/06/03 01:15:01;;;;;;;4.87;4.37;;;9.60;99.90;;;;;;5046859;28;20307;-66
2022/06/03 01:17:45;;;;;;;5.70;5.00;;;9.60;99.90;;;;;;5056128;28;20232;-66
2022/06/03 01:20:30;;;;;;;6.47;4.60;;;9.50;99.90;;;;;;5070917;28;20263;-66
2022/06/03 01:23:43;;;;;;;5.80;4.87;;;9.50;99.90;;;;;;5055168;28;20247;-66
2022/06/03 01:26:34;;;;;;;5.53;5.00;;;9.50;99.90;;;;;;5047797;28;20283;-66
2022/06/03 01:29:33;;;;;;;12.27;4.73;;;9.40;99.90;;;;;;5054567;28;20271;-66
2022/06/03 01:32:41;;;;;;;5.43;4.80;;;9.40;99.90;;;;;;5053292;28;20225;-66
2022/06/03 01:35:38;;;;;;;5.80;5.10;;;9.40;99.90;;;;;;5045997;28;20228;-66
2022/06/03 01:38:16;;;;;;;6.93;4.87;;;9.30;99.90;;;;;;5054076;28;20225;-66
2022/06/03 01:41:07;;;;;;;7.23;5.00;;;9.30;99.90;;;;;;5070204;28;20267;-66
2022/06/03 01:43:50;;;;;;;5.57;4.90;;;9.30;99.90;;;;;;5051143;28;20255;-66
2022/06/03 01:46:28;;;;;;;5.03;4.50;;;9.30;99.90;;;;;;5051646;28;20229;-66
2022/06/03 01:49:38;;;;;;;6.00;5.10;;;9.20;99.90;;;;;;5062217;28;20243;-66
2022/06/03 01:52:43;;;;;;;5.43;4.87;;;9.20;99.90;;;;;;5042206;28;20259;-66
2022/06/03 01:55:48;;;;;;;6.37;5.00;;;9.20;99.90;;;;;;5050785;28;20300;-66
2022/06/03 01:59:04;;;;;;;6.53;4.90;;;9.10;99.90;;;;;;5053699;28;20282;-66
2022/06/03 02:02:07;;;;;;;6.40;5.13;;;9.20;99.90;;;;;;5049871;28;20638;-66
2022/06/03 02:05:06;;;;;;;5.33;4.83;;;9.10;99.90;;;;;;5024622;28;20263;-66
2022/06/03 02:07:57;;;;;;;5.10;4.63;;;9.10;99.90;;;;;;5035183;28;20246;-66
2022/06/03 02:10:48;;;;;;;6.87;5.37;;;9.10;99.90;;;;;;5027364;28;20267;-66
2022/06/03 02:13:55;;;;;;;5.87;4.97;;;9.00;99.90;;;;;;5030802;28;20574;-66
2022/06/03 02:17:13;;;;;;;6.40;5.00;;;9.00;99.90;;;;;;5032922;28;20287;-66
2022/06/03 02:20:20;;;;;;;6.13;4.90;;;9.00;99.90;;;;;;5035399;28;20293;-66
2022/06/03 02:23:28;;;;;;;6.70;6.10;;;9.00;99.90;;;;;;5041234;28;20228;-66
2022/06/03 02:26:39;;;;;;;5.47;4.93;;;8.90;99.90;;;;;;5021355;28;20697;-66
2022/06/03 02:32:40;;;;;;;6.30;5.50;;;8.90;99.90;;;;;;5032416;28;20305;-66
2022/06/03 02:35:34;;;;;;;6.43;5.23;;;8.80;99.90;;;;;;5031179;28;20655;-66
2022/06/03 02:38:27;;;;;;;5.07;4.30;;;8.80;99.90;;;;;;5041039;28;20232;-66
2022/06/03 02:41:16;;;;;;;5.47;4.17;;;8.80;99.90;;;;;;5032740;28;20641;-66
2022/06/03 02:44:26;;;;;;;3.70;3.37;;;8.70;99.90;;;;;;5028432;28;20303;-66
2022/06/03 02:47:31;;;;;;;4.40;4.00;;;8.70;99.90;;;;;;5010636;28;20287;-65
2022/06/03 02:50:31;;;;;;;4.47;3.57;;;8.70;99.90;;;;;;5034962;28;20742;-65
2022/06/03 02:53:37;;;;;;;4.63;4.23;;;8.70;99.90;;;;;;5031813;28;20279;-65
2022/06/03 02:56:40;;;;;;;5.33;4.83;;;8.70;99.90;;;;;;5032789;28;20320;-65
2022/06/03 02:59:31;;;;;;;6.50;5.77;;;8.60;99.90;;;;;;4993531;28;20271;-65
2022/06/03 03:02:36;;;;;;;6.30;5.70;;;8.60;99.90;;;;;;5029761;28;20232;-65
2022/06/03 03:05:27;;;;;;;7.07;6.33;;;8.60;99.90;;;;;;5048396;28;20716;-65
2022/06/03 03:08:32;;;;;;;6.43;5.57;;;8.50;99.90;;;;;;5059820;28;20223;-65
2022/06/03 03:11:28;;;;;;;9.07;6.07;;;8.60;99.90;;;;;;5045676;28;20231;-65
2022/06/03 03:14:25;;;;;;;6.60;6.00;;;8.60;99.90;;;;;;5046524;28;20239;-65
2022/06/03 03:17:28;;;;;;;6.30;5.70;;;8.50;99.90;;;;;;5045784;28;20700;-65
2022/06/03 03:20:32;;;;;;;7.20;6.07;;;8.60;99.90;;;;;;5061681;28;20266;-65
2022/06/03 03:23:48;;;;;;;7.33;6.60;;;8.50;99.90;;;;;;5037311;28;20782;-65
2022/06/03 03:26:24;;;;;;;7.10;6.40;;;8.50;99.90;;;;;;5046727;28;20314;-65
2022/06/03 03:29:21;;;;;;;8.70;6.93;;;8.60;99.90;;;;;;5056227;28;20266;-65
2022/06/03 03:32:04;;;;;;;6.77;6.07;;;8.60;99.90;;;;;;5055564;28;20714;-65
2022/06/03 03:34:58;;;;;;;8.17;6.77;;;8.60;99.90;;;;;;5053602;28;20734;-65
2022/06/03 03:37:57;;;;;;;6.97;6.07;;;8.70;99.90;;;;;;5055591;28;20243;-65
2022/06/03 03:41:14;;;;;;;6.63;6.03;;;8.70;99.90;;;;;;5045186;28;20277;-65
2022/06/03 03:44:18;;;;;;;5.73;5.17;;;8.80;99.90;;;;;;5054134;28;20224;-65
2022/06/03 03:47:19;;;;;;;6.17;5.57;;;8.90;99.90;;;;;;5045893;28;20285;-65
2022/06/03 03:50:23;;;;;;;5.57;5.07;;;8.90;99.90;;;;;;5036352;28;20258;-65
2022/06/03 03:53:24;;;;;;;5.70;5.10;;;9.00;99.90;;;;;;5055788;28;20281;-65
2022/06/03 03:56:24;;;;;;;6.43;5.67;;;9.00;99.90;;;;;;5047494;28;20315;-65
2022/06/03 03:59:21;;;;;;;6.83;6.13;;;9.10;99.90;;;;;;5065973;28;20729;-65
2022/06/03 04:02:26;;;;;;;6.60;6.00;;;9.20;99.90;;;;;;5056217;28;20272;-65
2022/06/03 04:05:51;;;;;;;6.70;6.00;;;9.40;99.90;;;;;;5053448;28;20712;-65
2022/06/03 04:08:50;;;;;;;7.00;6.30;;;9.50;99.90;;;;;;5018087;28;20728;-65
2022/06/03 04:11:45;;;;;;;6.80;6.13;;;9.50;99.90;;;;;;5013551;28;20296;-65
2022/06/03 04:14:53;;;;;;;6.60;6.00;;;9.60;99.90;;;;;;5049436;28;20221;-65
2022/06/03 04:17:57;;;;;;;7.30;6.60;;;9.70;99.90;;;;;;5055602;28;20240;-65
2022/06/03 04:20:52;;;;;;;7.40;6.17;;;9.90;99.90;;;;;;5041586;28;20230;-66
2022/06/03 04:23:56;;;;;;;6.47;5.87;;;10.00;99.90;;;;;;5053451;28;20911;-65
2022/06/03 04:26:51;;;;;;;7.93;7.20;;;10.20;99.90;;;;;;5047699;28;20229;-65
2022/06/03 04:29:51;;;;;;;8.53;7.60;;;10.30;99.90;;;;;;5054042;28;20251;-65
2022/06/03 04:33:15;;;;;;;8.73;7.70;;;10.50;99.90;;;;;;5045739;28;20232;-65
2022/06/03 04:36:28;;;;;;;8.90;7.90;;;10.70;99.90;;;;;;5050252;28;20224;-65
2022/06/03 04:39:28;;;;;;;8.83;7.30;;;10.90;99.90;;;;;;5048452;28;20234;-65
2022/06/03 04:42:27;;;;;;;8.70;7.77;;;10.90;99.90;;;;;;5046092;28;20691;-66
2022/06/03 04:45:38;;;;;;;8.00;7.20;;;11.10;99.90;;;;;;5049307;28;20258;-66
2022/06/03 04:48:52;;;;;;;8.57;7.77;;;11.20;99.90;;;;;;5055070;28;20248;-65
2022/06/03 04:51:54;;;;;;;8.57;7.70;;;11.20;99.90;;;;;;5054756;28;20279;-65
2022/06/03 04:55:11;;;;;;;7.77;7.07;;;11.30;99.90;;;;;;5048221;28;20238;-66
2022/06/03 04:58:34;;;;;;;9.57;7.27;;;11.50;99.90;;;;;;4982829;28;20240;-66
2022/06/03 05:01:53;;;;;;;7.83;7.13;;;11.80;99.90;;;;;;4974969;28;20236;-65
2022/06/03 05:04:58;;;;;;;7.97;7.20;;;12.00;99.90;;;;;;5050722;28;20237;-65
2022/06/03 05:08:08;;;;;;;8.73;7.13;;;12.50;99.90;;;;;;5052325;28;20254;-65
2022/06/03 05:11:29;;;;;;;7.57;6.87;;;12.80;99.90;;;;;;5043663;28;20272;-65
2022/06/03 05:14:31;;;;;;;9.20;6.87;;;13.10;99.90;;;;;;5049732;28;20222;-65
2022/06/03 05:17:31;;;;;;;9.90;7.73;;;13.50;99.90;;;;;;5051332;28;20300;-65
2022/06/03 05:20:32;;;;;;;9.53;8.53;;;13.70;99.90;;;;;;5034533;28;20235;-65
2022/06/03 05:23:43;;;;;;;7.73;6.70;;;14.00;99.90;;;;;;5051356;28;20262;-65
2022/06/03 05:27:01;;;;;;;7.97;6.70;;;14.00;99.90;;;;;;5052752;28;20234;-65
2022/06/03 05:29:55;;;;;;;7.47;6.63;;;14.30;99.90;;;;;;4969537;28;20227;-65
2022/06/03 05:32:58;;;;;;;8.60;7.67;;;14.90;99.90;;;;;;5050414;28;20299;-65
2022/06/03 05:35:38;;;;;;;8.20;7.10;;;14.90;99.90;;;;;;5051201;28;20223;-65
2022/06/03 05:38:44;;;;;;;10.60;7.20;;;15.00;99.90;;;;;;5051145;28;20227;-65
2022/06/03 05:44:40;;;;;;;8.57;6.10;;;15.50;99.90;;;;;;5047965;28;20235;-65
2022/06/03 05:47:12;;;;;;;6.63;5.20;;;15.80;99.90;;;;;;5050981;28;20696;-65
2022/06/03 05:49:51;;;;;;;6.93;5.77;;;16.10;99.90;;;;;;5052608;28;20251;-65
2022/06/03 05:52:40;;;;;;;5.33;4.60;;;16.20;99.90;;;;;;5057304;28;20306;-65
2022/06/03 05:55:35;;;;;;;6.30;4.83;;;16.50;99.90;;;;;;5053620;28;20715;-65
2022/06/03 05:58:19;;;;;;;6.03;4.67;;;16.80;99.90;;;;;;5060155;28;20220;-65
2022/06/03 06:01:04;;;;;;;6.63;4.90;;;16.90;99.90;;;;;;5045598;28;20220;-65
2022/06/03 06:03:40;;;;;;;5.90;5.40;;;17.00;99.90;;;;;;5051201;28;20734;-65
2022/06/03 06:06:22;;;;;;;7.37;5.37;;;17.10;99.90;;;;;;5048459;28;20224;-65
2022/06/03 06:09:01;;;;;;;7.80;5.67;;;17.10;99.90;;;;;;5051045;28;20318;-65
2022/06/03 06:11:39;;;;;;;7.53;5.30;;;17.20;99.90;;;;;;5050863;28;20676;-65
2022/06/03 06:14:25;;;;;;;6.50;5.47;;;17.60;99.90;;;;;;5044800;28;20637;-65
2022/06/03 06:17:00;;;;;;;12.90;6.97;;;17.70;99.90;;;;;;5047523;28;20229;-65
2022/06/03 06:19:42;;;;;;;8.77;6.43;;;17.50;99.90;;;;;;5052273;28;20267;-65
2022/06/03 06:22:25;;;;;;;6.20;5.47;;;17.60;99.90;;;;;;5052490;28;20219;-65
2022/06/03 06:25:04;;;;;;;9.27;6.40;;;17.60;99.90;;;;;;5046300;28;20718;-65
2022/06/03 06:28:02;;;;;;;9.37;5.17;;;17.70;99.90;;;;;;5051429;28;20561;-65
2022/06/03 06:31:15;;;;;;;6.43;3.97;;;17.90;99.90;;;;;;5051708;28;20228;-65
2022/06/03 06:34:13;;;;;;;5.83;4.40;;;18.30;99.90;;;;;;5050397;28;20243;-65
2022/06/03 06:37:12;;;;;;;8.33;5.27;;;18.40;99.90;;;;;;5050376;28;20306;-65
2022/06/03 06:40:03;;;;;;;6.70;5.37;;;18.50;99.90;;;;;;5029811;28;20221;-65
2022/06/03 06:42:59;;;;;;;7.37;6.47;;;18.80;99.90;;;;;;5050447;28;20263;-65
2022/06/03 06:45:37;;;;;;;7.80;6.87;;;18.90;99.90;;;;;;5049105;28;20320;-65
2022/06/03 06:48:16;;;;;;;6.40;5.80;;;18.80;99.90;;;;;;5052637;28;20625;-65
2022/06/03 06:50:52;;;;;;;6.13;5.53;;;18.80;99.90;;;;;;5052281;28;20228;-65
2022/06/03 06:53:32;;;;;;;6.60;4.97;;;19.10;99.90;;;;;;5045213;28;20249;-65
2022/06/03 06:56:10;;;;;;;6.90;5.77;;;19.40;99.90;;;;;;5051950;28;20229;-65
2022/06/03 06:58:45;;;;;;;7.80;5.87;;;19.30;99.90;;;;;;5051824;28;20284;-65
2022/06/03 07:01:18;;;;;;;6.93;5.00;;;19.40;99.90;;;;;;5052215;28;20284;-65
2022/06/03 07:03:55;;;;;;;6.47;5.03;;;19.40;99.90;;;;;;5045685;28;20238;-65
2022/06/03 07:06:36;;;;;;;6.77;4.57;;;19.40;99.90;;;;;;5051645;28;20321;-65
2022/06/03 07:09:26;;;;;;;5.67;3.93;;;19.60;99.90;;;;;;5051566;28;20700;-65
2022/06/03 07:12:02;;;;;;;6.30;3.83;;;20.00;99.90;;;;;;5045512;28;20428;-65
2022/06/03 07:14:34;;;;;;;5.07;3.37;;;20.10;99.90;;;;;;5050070;28;20258;-65
2022/06/03 07:20:06;;;;;;;2.80;2.60;;;20.10;99.90;;;;;;5045601;28;20270;-65
2022/06/03 07:22:44;;;;;;;5.17;2.80;;;20.30;99.90;;;;;;5051646;28;20266;-65
2022/06/03 07:25:24;;;;;;;4.80;3.13;;;20.50;99.90;;;;;;5048521;28;20713;-65
2022/06/03 07:27:58;;;;;;;3.50;3.10;;;20.50;99.90;;;;;;5049668;28;20269;-65
2022/06/03 07:30:34;;;;;;;5.00;3.03;;;20.50;99.90;;;;;;5049176;28;20240;-65
2022/06/03 07:33:10;;;;;;;4.00;2.80;;;20.90;99.90;;;;;;5049015;28;20325;-65
2022/06/03 07:35:45;;;;;;;3.87;2.50;;;21.20;99.90;;;;;;5040249;28;20774;-65
2022/06/03 07:38:23;;;;;;;3.50;2.40;;;21.40;99.90;;;;;;5041557;28;20321;-65
2022/06/03 07:40:59;;;;;;;4.57;2.23;;;21.40;99.90;;;;;;5041246;28;20246;-65
2022/06/03 07:43:38;;;;;;;3.23;2.17;;;21.60;99.90;;;;;;5038311;28;20266;-65
2022/06/03 07:46:13;;;;;;;4.87;2.43;;;21.80;99.90;;;;;;5040598;28;20270;-65
2022/06/03 07:48:42;;;;;;;5.40;2.57;;;21.80;99.90;;;;;;5040377;28;20223;-65
2022/06/03 07:51:21;;;;;;;4.87;2.20;;;22.20;99.90;;;;;;5039898;28;20658;-65
2022/06/03 07:54:03;;;;;;;3.97;2.00;;;22.20;99.90;;;;;;5038954;28;20801;-64
2022/06/03 07:56:34;;;;;;;3.90;2.03;;;22.30;99.90;;;;;;5041822;28;20322;-65
2022/06/03 07:59:06;;;;;;;3.23;1.73;;;22.30;99.90;;;;;;5042914;28;20243;-65
2022/06/03 08:01:37;;;;;;;3.03;1.63;;;22.50;99.90;;;;;;5042685;28;20355;-65
2022/06/03 08:04:08;;;;;;;2.90;1.57;;;22.80;99.90;;;;;;5040459;28;20232;-65
2022/06/03 08:12:31;;;;;;;2.40;1.70;;;23.50;99.90;;;;;;5021239;28;20235;-65
2022/06/03 08:15:15;;;;;;;2.37;1.37;;;23.70;99.90;;;;;;5021176;28;20220;-65
2022/06/03 08:17:45;;;;;;;4.47;1.60;;;23.80;99.90;;;;;;5037621;28;20354;-65
2022/06/03 08:20:15;;;;;;;4.73;1.70;;;23.70;99.90;;;;;;5045414;28;20256;-65
2022/06/03 08:22:45;;;;;;;2.00;1.40;;;23.90;99.90;;;;;;5044809;28;20223;-64
2022/06/03 08:25:18;;;;;;;3.43;1.40;;;23.90;99.90;;;;;;5042263;28;20245;-65
2022/06/03 08:27:48;;;;;;;4.00;1.53;;;24.20;99.90;;;;;;5044260;28;20274;-65
2022/06/03 08:30:23;;;;;;;2.57;1.50;;;24.30;99.90;;;;;;5043059;28;20227;-62
2022/06/03 08:32:55;;;;;;;3.17;1.43;;;24.10;99.90;;;;;;5043171;28;20247;-62
2022/06/03 08:35:26;;;;;;;3.47;1.87;;;24.10;99.90;;;;;;5042772;28;20228;-62
2022/06/03 08:37:57;;;;;;;3.53;1.80;;;23.90;99.90;;;;;;5044072;28;20747;-62
2022/06/03 08:40:31;;;;;;;3.83;1.70;;;23.90;99.90;;;;;;5043539;28;20267;-62
2022/06/03 08:43:09;;;;;;;3.70;1.50;;;23.60;99.90;;;;;;5043064;28;20239;-62
2022/06/03 08:45:54;;;;;;;3.37;1.60;;;24.10;99.90;;;;;;5042953;28;20238;-62
2022/06/03 08:48:29;;;;;;;2.93;1.30;;;24.20;99.90;;;;;;5044658;28;20609;-62
2022/06/03 08:51:00;;;;;;;4.43;1.67;;;24.30;99.90;;;;;;5043641;28;20255;-62
2022/06/03 08:53:37;;;;;;;1.50;1.30;;;24.40;99.90;;;;;;5041648;28;20247;-62
2022/06/03 08:56:08;;;;;;;1.83;1.30;;;24.80;99.90;;;;;;5043179;28;20286;-62
2022/06/03 08:58:44;;;;;;;3.87;1.73;;;25.00;99.90;;;;;;5043711;28;20237;-62
2022/06/03 09:01:30;;;;;;;2.77;1.47;;;25.60;99.90;;;;;;5043854;28;20299;-62
2022/06/03 09:04:10;;;;;;;2.77;1.40;;;25.60;99.90;;;;;;5042143;28;20396;-62
2022/06/03 09:06:48;;;;;;;1.30;1.00;;;26.00;99.90;;;;;;5043855;28;20234;-62
2022/06/03 09:09:25;;;;;;;3.83;1.30;;;26.20;99.90;;;;;;5043648;28;20765;-62
2022/06/03 09:12:03;;;;;;;4.07;1.47;;;25.90;99.90;;;;;;5044004;28;21006;-62
2022/06/03 09:14:32;;;;;;;3.20;1.40;;;25.60;99.90;;;;;;5041575;28;20331;-62
2022/06/03 09:17:08;;;;;;;1.93;1.20;;;25.00;99.90;;;;;;5042068;28;20702;-62
2022/06/03 09:19:41;;;;;;;2.90;1.20;;;25.20;99.90;;;;;;5042924;28;20250;-65
2022/06/03 09:22:14;;;;;;;3.53;1.40;;;25.20;99.90;;;;;;5032174;28;20763;-65
2022/06/03 09:24:44;;;;;;;2.57;1.10;;;25.90;99.90;;;;;;5028536;28;20873;-65
2022/06/03 09:27:16;;;;;;;3.93;1.20;;;26.30;99.90;;;;;;5030495;28;20239;-65
2022/06/03 09:29:51;;;;;;;4.67;1.50;;;26.70;99.90;;;;;;5028703;28;20962;-65
2022/06/03 09:32:22;;;;;;;3.30;1.30;;;27.20;99.90;;;;;;5032224;28;20367;-65
2022/06/03 09:34:54;;;;;;;3.93;1.70;;;27.20;99.90;;;;;;5007968;28;20238;-65
2022/06/03 09:37:26;;;;;;;1.63;1.20;;;26.80;99.90;;;;;;5010598;28;21328;-62
2022/06/03 09:39:57;;;;;;;1.63;0.93;;;26.00;99.90;;;;;;5007533;28;20234;-62
2022/06/03 09:42:27;;;;;;;1.97;1.27;;;26.30;99.90;;;;;;5010462;28;20475;-62
2022/06/03 09:44:57;;;;;;;3.47;1.33;;;26.60;99.90;;;;;;5008596;28;20240;-62
2022/06/03 09:47:28;;;;;;;2.67;1.30;;;26.90;99.90;;;;;;5009841;28;20251;-62
2022/06/03 09:49:56;;;;;;;1.50;1.07;;;27.00;99.90;;;;;;5006584;28;20235;-62
2022/06/03 09:52:27;;;;;;;1.70;1.10;;;27.50;99.90;;;;;;5009468;28;20235;-62
2022/06/03 09:55:00;;;;;;;2.80;1.03;;;27.80;99.90;;;;;;5009044;28;20321;-62
2022/06/03 09:57:33;;;;;;;1.60;1.10;;;27.90;99.90;;;;;;5008994;28;20232;-62
2022/06/03 10:00:04;;;;;;;2.17;1.00;;;27.70;99.90;;;;;;5007312;28;21194;-62
2022/06/03 10:02:42;;;;;;;1.97;1.07;;;27.70;99.90;;;;;;5010328;28;20320;-62
2022/06/03 10:05:16;;;;;;;3.50;1.10;;;27.60;98.70;;;;;;5010287;28;20983;-62
2022/06/03 10:07:45;;;;;;;2.93;1.10;;;27.50;98.80;;;;;;5013791;28;20259;-62
2022/06/03 10:13:04;;;;;;;2.63;1.00;;;27.70;99.90;;;;;;5015155;28;20286;-62
2022/06/03 10:15:39;;;;;;;2.17;0.80;;;27.80;98.70;;;;;;5016526;28;20227;-62
2022/06/03 10:18:19;;;;;;;2.83;0.87;;;27.80;98.70;;;;;;5015758;28;20258;-62
2022/06/03 10:20:48;;;;;;;1.70;1.00;;;27.70;96.60;;;;;;5012426;28;20247;-62
2022/06/03 10:23:19;;;;;;;1.13;0.63;;;27.60;93.40;;;;;;5016715;28;20717;-63
2022/06/03 10:26:06;;;;;;;0.90;0.80;;;27.80;95.80;;;;;;5020797;28;20280;-62
2022/06/03 10:28:35;;;;;;;1.77;0.70;;;28.00;96.30;;;;;;5017063;28;20240;-62
2022/06/03 10:31:06;;;;;;;1.13;0.70;;;28.00;94.40;;;;;;5014338;28;20708;-62
2022/06/03 10:33:36;;;;;;;1.67;0.80;;;28.10;93.90;;;;;;5018921;28;20240;-62
2022/06/03 10:36:05;;;;;;;2.77;0.80;;;28.80;94.40;;;;;;5018589;28;20286;-62
2022/06/03 10:38:36;;;;;;;1.30;0.90;;;29.00;94.80;;;;;;5015537;28;20765;-62
2022/06/03 10:41:06;;;;;;;0.83;0.70;;;29.40;94.00;;;;;;5018079;28;20727;-62
2022/06/03 10:43:36;;;;;;;1.10;0.50;;;29.20;92.20;;;;;;5021611;28;20712;-62
2022/06/03 10:46:11;;;;;;;1.20;0.70;;;28.80;92.50;;;;;;5021923;28;20407;-61
2022/06/03 10:48:41;;;;;;;1.13;0.50;;;28.50;91.10;;;;;;5015663;28;20216;-62
2022/06/03 10:51:16;;;;;;;0.93;0.60;;;28.50;91.00;;;;;;5019311;28;20223;-62
2022/06/03 11:02:32;;;;;;;1.23;0.70;;;28.30;90.10;;;;;;5029948;28;20220;-61
2022/06/03 11:05:15;;;;;;;0.83;0.57;;;28.00;89.10;;;;;;5041443;28;20322;-62
2022/06/03 11:07:43;;;;;;;0.60;0.40;;;28.10;83.50;;;;;;5041431;28;20328;-62
2022/06/03 11:10:14;;;;;;;1.33;0.70;;;28.20;89.00;;;;;;5040774;28;20234;-62
2022/06/03 11:13:07;;;;;;;1.53;0.60;;;28.60;89.80;;;;;;5043111;28;20229;-62
2022/06/03 11:15:37;;;;;;;0.53;0.50;;;28.80;89.90;;;;;;5042763;28;20900;-62
2022/06/03 11:18:16;;;;;;;2.13;0.70;;;28.60;80.40;;;;;;5043090;28;20860;-62
2022/06/03 11:20:47;;;;;;;1.40;0.70;;;28.90;86.60;;;;;;5047818;28;20230;-62
2022/06/03 11:23:17;;;;;;;0.80;0.60;;;29.10;85.60;;;;;;5042233;28;20334;-62
2022/06/03 11:25:47;;;;;;;0.80;0.70;;;29.30;85.90;;;;;;5042686;28;20723;-62
2022/06/03 11:28:20;;;;;;;1.33;0.70;;;29.30;85.80;;;;;;5043042;28;20370;-62
2022/06/03 11:31:07;;;;;;;0.70;0.60;;;29.10;76.20;;;;;;5042888;28;20267;-62
2022/06/03 11:33:42;;;;;;;2.10;0.80;;;29.20;86.30;;;;;;5031460;28;21891;-62
2022/06/03 11:36:18;;;;;;;1.77;0.70;;;29.40;85.30;;;;;;5022977;28;20231;-62
2022/06/03 11:38:52;;;;;;;1.00;0.70;;;29.70;79.30;;;;;;5022700;28;20232;-62
2022/06/03 11:41:24;;;;;;;1.50;0.70;;;29.20;85.10;;;;;;5026304;28;20327;-62
2022/06/03 11:43:58;;;;;;;1.17;0.70;;;29.20;82.60;;;;;;5026613;28;20228;-62
2022/06/03 11:46:32;;;;;;;0.93;0.70;;;29.20;85.30;;;;;;5026713;28;20640;-62
2022/06/03 11:49:00;;;;;;;0.90;0.73;;;29.40;84.90;;;;;;5025732;28;20286;-62
2022/06/03 11:51:30;;;;;;;2.20;1.00;;;29.00;82.30;;;;;;5027362;28;20228;-62
2022/06/03 11:53:59;;;;;;;1.87;0.93;;;29.10;88.00;;;;;;5026165;28;20229;-62
2022/06/03 11:56:31;;;;;;;1.80;0.87;;;28.80;84.70;;;;;;5027008;28;20731;-62
2022/06/03 11:59:03;;;;;;;1.40;0.90;;;28.60;86.40;;;;;;5025769;28;20675;-62
2022/06/03 12:01:40;;;;;;;1.77;1.00;;;27.90;85.50;;;;;;5026657;28;20224;-62
2022/06/03 12:04:18;;;;;;;2.60;1.10;;;27.40;87.50;;;;;;5026410;28;20335;-62
2022/06/03 12:06:55;;;;;;;1.30;1.00;;;27.10;90.30;;;;;;5026297;28;20714;-62
2022/06/03 12:09:45;;;;;;;1.67;0.80;;;27.10;90.70;;;;;;5023875;28;20711;-62
2022/06/03 12:15:35;;;;;;;4.37;1.10;;;27.20;90.80;;;;;;5023148;28;20317;-62
2022/06/03 12:18:37;;;;;;;3.17;1.00;;;27.10;90.70;;;;;;5024329;28;20263;-62
2022/06/03 12:21:07;;;;;;;2.90;1.20;;;26.90;91.30;;;;;;5004719;28;20271;-62
2022/06/03 12:23:53;;;;;;;3.80;1.27;;;26.50;87.70;;;;;;5024862;28;20715;-62
2022/06/03 12:26:26;;;;;;;2.40;1.00;;;26.50;91.80;;;;;;5022589;28;20262;-62
2022/06/03 12:28:59;;;;;;;2.27;1.40;;;26.00;90.40;;;;;;5020756;28;20256;-62
2022/06/03 12:31:37;;;;;;;2.47;1.40;;;25.70;90.40;;;;;;5024256;28;21552;-62
2022/06/03 12:34:20;;;;;;;1.63;1.17;;;25.40;91.40;;;;;;5038515;28;20329;-62
2022/06/03 12:36:57;;;;;;;3.20;1.37;;;25.30;92.80;;;;;;5043296;28;20242;-62
2022/06/03 12:39:29;;;;;;;1.70;1.10;;;24.90;93.10;;;;;;5042371;28;20302;-62
2022/06/03 12:42:38;;;;;;;1.37;0.80;;;25.00;91.50;;;;;;5045786;28;20351;-62
2022/06/03 12:45:28;;;;;;;1.00;0.80;;;25.30;91.50;;;;;;5044860;28;20239;-62
2022/06/03 12:47:56;;;;;;;0.77;0.70;;;25.30;91.90;;;;;;5038434;28;20266;-62
2022/06/03 12:50:36;;;;;;;1.53;0.83;;;25.30;91.30;;;;;;5042242;28;20678;-62
2022/06/03 12:53:34;;;;;;;1.10;0.73;;;25.00;90.10;;;;;;5044628;28;20873;-62
2022/06/03 12:56:10;;;;;;;1.43;0.80;;;24.90;87.60;;;;;;5044882;28;20237;-62
2022/06/03 12:58:46;;;;;;;1.20;0.80;;;24.80;90.20;;;;;;5043838;28;20226;-62
2022/06/03 13:01:32;;;;;;;1.97;0.73;;;24.60;88.50;;;;;;5044630;28;20235;-62
2022/06/03 13:04:38;;;;;;;1.63;0.80;;;24.50;86.50;;;;;;5030069;28;20246;-62
2022/06/03 13:07:39;;;;;;;2.10;0.77;;;24.40;89.00;;;;;;5022945;28;20237;-62
2022/06/03 13:10:28;;;;;;;1.23;0.63;;;24.60;88.20;;;;;;5021993;28;20243;-62
2022/06/03 13:13:25;;;;;;;1.17;0.60;;;24.60;87.50;;;;;;5022391;28;20316;-62
2022/06/03 13:15:54;;;;;;;0.70;0.50;;;24.50;86.30;;;;;;5024389;28;20227;-62
2022/06/03 13:18:37;;;;;;;1.53;0.80;;;24.40;87.60;;;;;;5023735;28;20232;-62
2022/06/03 13:21:49;;;;;;;1.40;0.83;;;24.20;86.60;;;;;;5022471;28;20234;-62
2022/06/03 13:24:23;;;;;;;2.33;0.80;;;23.90;87.10;;;;;;5020080;28;20237;-62
2022/06/03 13:27:06;;;;;;;1.37;0.70;;;23.50;87.20;;;;;;5023734;28;20721;-63
2022/06/03 13:30:11;;;;;;;1.80;0.63;;;23.60;90.50;;;;;;5021555;28;20233;-62
2022/06/03 13:32:53;;;;;;;2.17;0.80;;;23.60;91.00;;;;;;5023191;28;21095;-62
2022/06/03 13:35:24;;;;;;;0.93;0.77;;;23.30;87.30;;;;;;5023560;28;20257;-62
2022/06/03 13:38:24;;;;;;;1.33;0.70;;;23.30;89.00;;;;;;5022586;28;20235;-62
2022/06/03 13:44:10;;;;;;;1.10;0.80;;;23.00;86.50;;;;;;5023934;28;20279;-63
2022/06/03 13:46:39;;;;;;;1.77;0.90;;;23.10;91.00;;;;;;5024527;28;20225;-63
2022/06/03 13:49:21;;;;;;;1.70;0.87;;;23.30;90.00;;;;;;5024546;28;20885;-62
2022/06/03 13:51:57;;;;;;;0.80;0.70;;;23.10;89.90;;;;;;5024841;28;20237;-62
2022/06/03 13:54:34;;;;;;;1.07;0.83;;;23.00;90.30;;;;;;5023787;28;20350;-63
2022/06/03 13:57:15;;;;;;;1.10;1.00;;;23.10;91.10;;;;;;5023552;28;20250;-63
2022/06/03 13:59:44;;;;;;;1.37;1.00;;;23.10;90.20;;;;;;5021134;28;20227;-63
2022/06/03 14:02:18;;;;;;;1.40;0.80;;;23.10;90.70;;;;;;5022649;28;20597;-63
2022/06/03 14:04:57;;;;;;;1.67;0.90;;;23.00;88.50;;;;;;5021320;28;20324;-63
2022/06/03 14:07:35;;;;;;;1.20;0.80;;;22.90;91.10;;;;;;5022883;28;20717;-62
2022/06/03 14:10:13;;;;;;;1.33;0.80;;;22.80;91.60;;;;;;5021317;28;20708;-63
2022/06/03 14:12:52;;;;;;;3.63;0.93;;;22.60;91.00;;;;;;5023114;28;20779;-63
2022/06/03 14:15:26;;;;;;;1.47;0.93;;;22.50;92.20;;;;;;5023035;28;20232;-63
2022/06/03 14:17:58;;;;;;;1.67;1.00;;;22.40;92.70;;;;;;5022844;28;20328;-63
2022/06/03 14:20:32;;;;;;;1.10;0.90;;;22.30;92.00;;;;;;5020976;28;20233;-63
2022/06/03 14:23:12;;;;;;;1.40;0.80;;;22.30;93.20;;;;;;5022962;28;20238;-63
2022/06/03 14:25:50;;;;;;;1.17;0.80;;;22.20;93.60;;;;;;5023104;28;20302;-63
2022/06/03 14:28:26;;;;;;;1.30;1.00;;;22.10;93.70;;;;;;5021578;28;20220;-63
2022/06/03 14:31:00;;;;;;;1.50;0.80;;;22.10;93.60;;;;;;5021188;28;20235;-63
2022/06/03 14:33:37;;;;;;;2.23;1.00;;;22.10;94.00;;;;;;5021243;28;20239;-63
2022/06/03 14:36:09;;;;;;;1.30;1.17;;;21.90;94.40;;;;;;5021969;28;20294;-63
2022/06/03 14:38:40;;;;;;;2.47;1.07;;;21.90;94.90;;;;;;5011089;28;20233;-63
2022/06/03 14:41:11;;;;;;;1.90;1.00;;;22.00;94.70;;;;;;5009535;28;20236;-63
2022/06/03 14:43:40;;;;;;;2.10;1.10;;;22.10;95.40;;;;;;5012031;28;20789;-63
2022/06/03 14:46:14;;;;;;;2.57;1.03;;;22.00;94.90;;;;;;5012099;28;20720;-63
2022/06/03 14:48:48;;;;;;;2.20;1.10;;;22.00;94.40;;;;;;5008485;28;20709;-63
2022/06/03 14:51:32;;;;;;;3.37;1.00;;;21.90;95.40;;;;;;5010855;28;20354;-63
2022/06/03 14:54:05;;;;;;;1.20;1.10;;;21.80;95.60;;;;;;5010443;28;20632;-63